Marple Township, Pennsylvania
Current Conditions -  °F | °C
As of 6:54 AM on Friday 28 Nov 2014 (Local Time) from KPHL Reporting Station
Few Clouds Few Clouds  
Wind Chill: 24°   Ceiling: Unl
Heat Index: 32°   Visibility: 10mi
Dew Point: 22°   Wind: 10mph
Humidity: 66%   Direction: 260°W
Pressure: 30.19"   Gusts: NA
Location:  39.9737°N, 75.3608°W
Report Text: KPHL 281154Z 26009KT 10SM FEW065 00/M06 A3019 RMK AO2 SLP223 T00001056 10011 21006 53018 $
Loading
Personal Weather Stations






























Interactive Weather Map New forecast layout! Learn more

10-Day Weather Forecast

Advertisements
Track Severe Weather on mobile